Time;durP1;ratioP1;P1;durP2;ratioP2;P2;SDS_P1;SDS_P2;PMS_P1;PMS_P2;Temp;Humidity;BMP_temperature;BMP_pressure;BME280_temperature;BME280_humidity;BME280_pressure;Samples;Min_cycle;Max_cycle;Signal;HPM_P1;HPM_P2
2022/04/10 00:01:50;;;;;;;6.28;2.40;;;;;;;5.49;52.88;98816.66;5085401;28;20219;-73
2022/04/10 00:04:23;;;;;;;2.83;2.30;;;;;;;5.47;53.01;98809.75;5084979;28;20049;-73
2022/04/10 00:06:55;;;;;;;3.65;1.70;;;;;;;5.45;52.87;98828.22;5084921;28;20052;-73
2022/04/10 00:09:28;;;;;;;5.65;2.40;;;;;;;5.12;53.20;98768.31;5084961;28;20047;-72
2022/04/10 00:12:03;;;;;;;6.00;2.22;;;;;;;5.41;53.33;98811.72;5067816;28;20247;-73
2022/04/10 00:14:35;;;;;;;3.35;2.22;;;;;;;5.36;53.47;98815.47;5085034;28;20036;-73
2022/04/10 00:17:09;;;;;;;3.65;2.35;;;;;;;5.28;53.61;98820.19;5085277;28;20094;-73
2022/04/10 00:19:43;;;;;;;5.13;2.30;;;;;;;5.20;54.16;98830.19;5085017;28;20082;-73
2022/04/10 00:22:16;;;;;;;4.03;3.08;;;;;;;4.43;54.02;98730.03;5084739;28;20040;-73
2022/04/10 00:24:48;;;;;;;5.20;2.92;;;;;;;4.84;54.83;98799.22;5084834;28;20047;-73
2022/04/10 00:27:22;;;;;;;5.50;2.35;;;;;;;5.08;54.79;98834.16;5085497;28;20040;-73
2022/04/10 00:29:54;;;;;;;4.80;2.25;;;;;;;5.16;54.37;98831.22;5088881;28;20036;-73
2022/04/10 00:32:27;;;;;;;5.18;2.80;;;;;;;5.18;53.89;98826.75;5071135;28;20055;-73
2022/04/10 00:35:00;;;;;;;4.82;2.92;;;;;;;5.10;54.83;98845.47;5055601;28;20096;-73
2022/04/10 00:37:32;;;;;;;6.43;3.80;;;;;;;5.09;54.93;98834.09;5071146;28;20044;-74
2022/04/10 00:40:06;;;;;;;6.22;3.55;;;;;;;5.12;54.42;98847.13;5088656;28;20047;-73
2022/04/10 00:42:41;;;;;;;5.85;3.03;;;;;;;5.06;55.14;98849.13;5088298;28;20044;-73
2022/04/10 00:45:13;;;;;;;3.85;2.88;;;;;;;5.05;54.82;98856.16;5088091;28;20040;-73
2022/04/10 00:47:46;;;;;;;6.50;2.63;;;;;;;4.95;54.53;98835.59;5088221;28;20048;-73
2022/04/10 00:50:20;;;;;;;3.97;2.28;;;;;;;5.05;55.17;98861.41;5088199;28;20106;-73
2022/04/10 00:52:52;;;;;;;3.88;2.75;;;;;;;4.53;55.30;98794.34;5088137;28;20044;-73
2022/04/10 00:55:25;;;;;;;5.75;2.88;;;;;;;4.93;55.91;98871.56;5054764;28;20049;-72
2022/04/10 00:57:58;;;;;;;6.95;2.97;;;;;;;4.93;55.30;98880.28;5088005;28;20099;-73
2022/04/10 01:00:30;;;;;;;6.38;2.30;;;;;;;4.61;55.66;98822.91;5088021;28;20041;-73
2022/04/10 01:03:03;;;;;;;6.63;3.25;;;;;;;4.91;55.61;98873.38;5087930;28;20098;-73
2022/04/10 01:05:35;;;;;;;6.13;3.33;;;;;;;4.83;56.26;98871.03;5087942;28;20082;-73
2022/04/10 01:08:07;;;;;;;14.63;3.40;;;;;;;4.80;55.74;98872.00;5067101;28;20041;-73
2022/04/10 01:10:40;;;;;;;3.75;2.20;;;;;;;4.87;55.88;98869.16;5067811;28;20041;-73
2022/04/10 01:13:13;;;;;;;3.38;2.42;;;;;;;4.82;55.80;98867.56;5068068;28;20083;-73
2022/04/10 01:15:46;;;;;;;3.75;2.85;;;;;;;4.87;55.64;98866.53;5067719;28;20181;-73
2022/04/10 01:18:18;;;;;;;4.75;3.15;;;;;;;4.86;55.80;98864.81;5067172;28;20083;-73
2022/04/10 01:20:51;;;;;;;5.82;3.03;;;;;;;4.87;55.91;98871.78;5067676;28;20060;-74
2022/04/10 01:23:24;;;;;;;4.40;2.40;;;;;;;4.82;56.38;98870.19;5066851;28;20045;-74
2022/04/10 01:25:56;;;;;;;3.65;2.55;;;;;;;4.84;55.97;98877.13;5067532;28;20087;-74
2022/04/10 01:28:29;;;;;;;4.55;2.60;;;;;;;4.88;55.31;98882.22;5066656;28;20049;-73
2022/04/10 01:31:01;;;;;;;3.38;2.40;;;;;;;4.89;55.80;98886.59;5067453;28;20045;-73
2022/04/10 01:33:33;;;;;;;4.05;2.33;;;;;;;4.90;55.42;98888.28;5067708;28;20293;-74
2022/04/10 01:36:04;;;;;;;3.35;2.47;;;;;;;4.82;55.80;98893.81;5067229;28;20051;-74
2022/04/10 01:38:35;;;;;;;4.68;2.15;;;;;;;4.81;56.36;98893.88;5066242;28;20196;-73
2022/04/10 01:41:04;;;;;;;3.65;2.40;;;;;;;4.84;55.46;98900.78;5067184;28;20064;-73
2022/04/10 01:43:34;;;;;;;3.78;2.45;;;;;;;4.86;55.47;98909.44;5066586;28;20045;-73
2022/04/10 01:46:04;;;;;;;3.47;2.28;;;;;;;4.82;55.44;98900.84;5067155;28;20044;-74
2022/04/10 01:48:34;;;;;;;4.30;2.40;;;;;;;4.82;55.99;98900.84;5066976;28;20104;-74
2022/04/10 01:51:04;;;;;;;3.28;2.20;;;;;;;4.82;56.12;98908.72;5067364;28;20064;-74
2022/04/10 01:53:36;;;;;;;3.63;2.55;;;;;;;3.78;56.28;98776.22;5067556;28;20040;-74
2022/04/10 01:56:06;;;;;;;4.18;2.15;;;;;;;4.75;55.64;98917.75;5066901;28;20041;-74
2022/04/10 01:58:37;;;;;;;3.53;2.33;;;;;;;4.75;56.20;98915.97;5066857;28;20305;-73
2022/04/10 02:01:07;;;;;;;5.03;3.20;;;;;;;4.40;56.12;98842.97;5066049;28;20316;-73
2022/04/10 02:03:36;;;;;;;3.85;2.60;;;;;;;4.70;56.10;98923.16;5065806;28;20053;-73
2022/04/10 02:06:06;;;;;;;3.17;2.30;;;;;;;4.70;56.17;98911.81;5069142;28;20099;-73
2022/04/10 02:08:37;;;;;;;3.53;2.50;;;;;;;4.70;55.94;98922.31;5086820;28;20036;-73
2022/04/10 02:11:10;;;;;;;4.32;2.33;;;;;;;4.69;56.62;98923.22;5086678;28;20059;-73
2022/04/10 02:13:41;;;;;;;4.95;2.95;;;;;;;4.67;56.41;98923.28;5086687;28;20060;-73
2022/04/10 02:16:12;;;;;;;4.03;2.45;;;;;;;4.27;56.37;98873.22;5069248;28;20041;-72
2022/04/10 02:18:41;;;;;;;4.60;2.33;;;;;;;4.63;55.89;98934.81;5086529;28;20050;-73
2022/04/10 02:21:11;;;;;;;6.35;3.13;;;;;;;4.55;56.63;98939.50;5087109;28;20047;-73
2022/04/10 02:23:44;;;;;;;6.13;2.72;;;;;;;4.53;56.65;98929.97;5086341;28;20044;-73
2022/04/10 02:26:12;;;;;;;16.65;12.40;;;;;;;3.35;56.93;98782.13;5086271;28;20057;-73
2022/04/10 02:28:42;;;;;;;28.05;17.92;;;;;;;4.62;56.47;98942.75;5086329;28;20074;-73
2022/04/10 02:31:11;;;;;;;7.72;5.05;;;;;;;4.65;56.38;98947.88;5086406;28;20041;-73
2022/04/10 02:33:41;;;;;;;4.75;3.38;;;;;;;4.66;56.11;98945.19;5086562;28;20045;-73
2022/04/10 02:36:14;;;;;;;4.55;2.97;;;;;;;4.64;56.28;98948.78;5069302;28;20041;-73
2022/04/10 02:38:43;;;;;;;3.60;2.20;;;;;;;4.66;56.22;98949.59;5086040;28;20079;-74
2022/04/10 02:41:12;;;;;;;3.63;2.10;;;;;;;4.62;56.57;98948.84;5068993;28;20048;-73
2022/04/10 02:43:42;;;;;;;3.78;2.42;;;;;;;4.16;56.99;98882.31;5086303;28;20044;-73
2022/04/10 02:46:12;;;;;;;3.72;2.42;;;;;;;4.48;57.56;98940.63;5086401;28;20103;-74
2022/04/10 02:48:42;;;;;;;3.45;2.65;;;;;;;4.41;57.22;98941.78;5086275;28;20108;-73
2022/04/10 02:51:12;;;;;;;4.25;2.67;;;;;;;4.38;57.32;98945.38;5085891;28;20043;-73
2022/04/10 02:53:44;;;;;;;4.20;2.38;;;;;;;4.33;58.16;98947.31;5085852;28;20354;-73
2022/04/10 02:56:12;;;;;;;4.60;2.75;;;;;;;4.38;57.59;98955.00;5085874;28;20070;-73
2022/04/10 02:58:42;;;;;;;6.53;3.17;;;;;;;4.35;57.92;98955.97;5085822;28;20075;-73
2022/04/10 03:01:13;;;;;;;3.42;2.50;;;;;;;4.32;58.20;98949.97;5086055;28;20040;-73
2022/04/10 03:03:43;;;;;;;4.70;2.85;;;;;;;4.29;58.32;98950.09;5085928;28;20192;-73
2022/04/10 03:06:13;;;;;;;7.78;5.88;;;;;;;4.27;58.89;98957.16;5085520;28;20220;-73
2022/04/10 03:08:44;;;;;;;5.82;3.22;;;;;;;4.27;58.62;98951.91;5068792;28;20105;-74
2022/04/10 03:11:13;;;;;;;5.63;3.20;;;;;;;4.20;58.88;98943.41;5068261;28;20255;-72
2022/04/10 03:13:43;;;;;;;4.50;3.20;;;;;;;4.14;58.96;98952.31;5085699;28;20292;-73
2022/04/10 03:16:13;;;;;;;4.55;3.35;;;;;;;4.18;58.87;98950.44;5085647;28;20201;-73
2022/04/10 03:18:44;;;;;;;4.18;2.85;;;;;;;4.21;58.58;98947.75;5085875;28;20044;-73
2022/04/10 03:21:14;;;;;;;5.25;2.90;;;;;;;2.82;58.66;98718.53;5086118;28;20041;-73
2022/04/10 03:23:46;;;;;;;4.93;2.88;;;;;;;4.21;58.85;98939.88;5085662;28;20086;-72
2022/04/10 03:26:14;;;;;;;5.15;2.90;;;;;;;4.16;58.34;98945.25;5067999;28;20052;-72
2022/04/10 03:28:44;;;;;;;6.20;3.75;;;;;;;4.20;58.10;98946.03;5085456;28;20041;-72
2022/04/10 03:31:14;;;;;;;6.28;3.88;;;;;;;4.21;58.22;98946.88;5085431;28;20090;-72
2022/04/10 03:33:44;;;;;;;5.18;2.80;;;;;;;4.13;58.48;98945.34;5085700;28;20055;-72
2022/04/10 03:36:14;;;;;;;4.88;2.78;;;;;;;4.21;58.26;98949.50;5085646;28;20036;-73
2022/04/10 03:38:46;;;;;;;5.57;3.13;;;;;;;4.16;58.23;98955.75;5085675;28;20039;-72
2022/04/10 03:41:15;;;;;;;4.72;2.88;;;;;;;4.15;58.35;98959.28;5052063;28;20041;-73
2022/04/10 03:43:45;;;;;;;4.78;3.85;;;;;;;4.15;58.56;98961.91;5085298;28;20036;-73
2022/04/10 03:46:15;;;;;;;4.18;3.03;;;;;;;4.17;57.82;98961.84;5085633;28;20041;-73
2022/04/10 03:48:45;;;;;;;9.73;3.00;;;;;;;4.21;58.06;98967.88;5085504;28;20036;-73
2022/04/10 03:51:15;;;;;;;3.80;2.80;;;;;;;4.24;57.52;98975.63;5085216;28;20041;-72
2022/04/10 03:53:47;;;;;;;4.10;3.25;;;;;;;3.93;57.73;98937.34;5085217;28;20041;-72
2022/04/10 03:56:15;;;;;;;5.60;3.28;;;;;;;4.14;57.66;98994.28;5085005;28;20052;-73
2022/04/10 03:58:45;;;;;;;5.10;3.10;;;;;;;4.14;58.09;98996.03;5085736;28;20036;-73
2022/04/10 04:01:16;;;;;;;5.43;3.13;;;;;;;4.14;57.77;99001.28;5085168;28;20059;-73
2022/04/10 04:03:46;;;;;;;3.60;3.00;;;;;;;4.00;57.86;98985.19;5088113;28;20040;-73
2022/04/10 04:06:16;;;;;;;6.45;3.80;;;;;;;4.05;58.72;99012.97;5089094;28;20060;-73
2022/04/10 04:08:48;;;;;;;6.72;4.28;;;;;;;3.78;58.46;98961.47;5089048;28;20289;-73
2022/04/10 04:11:16;;;;;;;6.55;3.78;;;;;;;4.04;58.83;99013.00;5089302;28;20036;-73
2022/04/10 04:13:46;;;;;;;5.85;3.65;;;;;;;4.04;58.70;99019.09;5089270;28;20048;-73
2022/04/10 04:16:16;;;;;;;3.97;3.20;;;;;;;4.01;59.02;99013.97;5072093;28;20044;-74
2022/04/10 04:18:47;;;;;;;3.88;3.10;;;;;;;4.01;59.40;99026.22;5088904;28;20040;-73
2022/04/10 04:21:17;;;;;;;4.00;3.47;;;;;;;3.99;59.02;99022.78;5089009;28;20040;-73
2022/04/10 04:23:48;;;;;;;4.35;3.60;;;;;;;3.98;59.56;99021.09;5088997;28;20048;-74
2022/04/10 04:26:17;;;;;;;4.72;3.40;;;;;;;3.90;59.38;99026.59;5088588;28;20040;-73
2022/04/10 04:28:47;;;;;;;4.07;3.08;;;;;;;3.93;59.13;99036.97;5088567;28;20196;-73
2022/04/10 04:31:17;;;;;;;6.38;3.35;;;;;;;3.88;59.56;99027.53;5088791;28;20036;-73
2022/04/10 04:33:47;;;;;;;6.28;4.53;;;;;;;3.60;59.62;98985.66;5088548;28;20288;-73
2022/04/10 04:36:18;;;;;;;4.72;3.60;;;;;;;3.91;59.38;99037.94;5088714;28;20293;-74
2022/04/10 04:38:49;;;;;;;4.43;3.42;;;;;;;3.63;60.19;98993.41;5088730;28;20048;-74
2022/04/10 04:41:18;;;;;;;5.32;3.22;;;;;;;3.94;58.91;99041.31;5070999;28;20040;-73
2022/04/10 04:43:48;;;;;;;5.38;3.65;;;;;;;3.93;59.31;99055.31;5088428;28;20059;-74
2022/04/10 04:46:18;;;;;;;4.65;3.42;;;;;;;3.96;59.30;99057.84;5088146;28;20040;-74
2022/04/10 04:48:48;;;;;;;5.15;2.92;;;;;;;3.98;59.10;99060.41;5088455;28;20078;-74
2022/04/10 04:51:18;;;;;;;7.97;3.97;;;;;;;3.66;59.07;99017.75;5071074;28;20048;-74
2022/04/10 04:53:52;;;;;;;4.78;3.58;;;;;;;3.94;59.20;99064.03;5088419;28;20036;-74
2022/04/10 04:56:24;;;;;;;4.25;2.92;;;;;;;3.92;59.16;99071.97;5070697;28;20044;-74
2022/04/10 04:58:57;;;;;;;3.72;2.88;;;;;;;3.90;58.86;99072.91;5070620;28;20040;-73
2022/04/10 05:01:29;;;;;;;3.97;3.13;;;;;;;3.97;58.71;99074.44;5070952;28;20040;-74
2022/04/10 05:04:02;;;;;;;4.88;3.30;;;;;;;4.01;58.26;99078.66;5070601;28;20188;-74
2022/04/10 05:06:34;;;;;;;4.00;2.92;;;;;;;4.01;58.48;99081.28;5087717;28;20060;-74
2022/04/10 05:09:08;;;;;;;4.60;3.30;;;;;;;4.01;58.35;99084.78;5088231;28;20051;-74
2022/04/10 05:11:40;;;;;;;3.83;3.03;;;;;;;4.04;58.36;99091.69;5088166;28;20040;-74
2022/04/10 05:14:13;;;;;;;4.07;3.00;;;;;;;4.05;57.97;99086.38;5086604;28;20324;-74
2022/04/10 05:16:45;;;;;;;3.60;2.95;;;;;;;4.09;58.01;99090.63;5087814;28;20045;-74
2022/04/10 05:19:18;;;;;;;3.65;2.45;;;;;;;4.20;57.65;99095.53;5071092;28;20208;-73
2022/04/10 05:21:50;;;;;;;4.43;2.92;;;;;;;4.26;57.46;99103.22;5087934;28;20036;-74
2022/04/10 05:24:24;;;;;;;4.75;2.80;;;;;;;3.97;56.65;99048.22;5071339;28;20048;-74
2022/04/10 05:26:56;;;;;;;6.18;3.10;;;;;;;4.25;56.60;99104.13;5087819;28;20285;-73
2022/04/10 05:29:28;;;;;;;6.97;2.97;;;;;;;4.29;56.32;99117.97;5087855;28;20182;-73
2022/04/10 05:32:01;;;;;;;4.95;2.63;;;;;;;4.31;56.17;99121.41;5070093;28;20047;-73
2022/04/10 05:34:34;;;;;;;6.15;2.88;;;;;;;4.39;55.79;99122.88;5070752;28;20315;-74
2022/04/10 05:37:07;;;;;;;4.35;3.13;;;;;;;4.20;55.63;99069.31;5087422;28;20040;-73
2022/04/10 05:39:42;;;;;;;3.95;2.40;;;;;;;3.86;55.49;99019.72;5069889;28;20040;-73
2022/04/10 05:42:15;;;;;;;4.10;2.33;;;;;;;4.53;55.40;99126.78;5087311;28;20213;-73
2022/04/10 05:44:47;;;;;;;4.00;2.80;;;;;;;4.54;55.41;99126.75;5087224;28;20041;-73
2022/04/10 05:47:19;;;;;;;3.60;2.47;;;;;;;4.62;55.23;99129.09;5087227;28;20036;-73
2022/04/10 05:49:52;;;;;;;5.72;2.85;;;;;;;4.70;54.90;99135.81;5087205;28;20040;-74
2022/04/10 05:52:28;;;;;;;4.78;2.60;;;;;;;4.72;54.56;99122.63;5087113;28;20048;-74
2022/04/10 05:55:02;;;;;;;4.13;2.55;;;;;;;4.52;54.16;99089.19;5087158;28;20048;-73
2022/04/10 05:57:34;;;;;;;3.63;2.70;;;;;;;4.52;54.00;99075.22;5087198;28;20044;-73
2022/04/10 06:00:10;;;;;;;4.03;2.60;;;;;;;4.96;53.94;99140.16;5069615;28;20047;-74
2022/04/10 06:02:43;;;;;;;5.13;2.40;;;;;;;5.07;53.86;99126.66;5087170;28;20040;-74
2022/04/10 06:05:16;;;;;;;5.22;2.88;;;;;;;4.87;53.51;99087.09;5069776;28;20036;-74
2022/04/10 06:07:49;;;;;;;3.30;2.42;;;;;;;5.30;53.10;99128.41;5086646;28;20052;-74
2022/04/10 06:10:23;;;;;;;3.55;2.55;;;;;;;6.04;51.36;99128.13;5086978;28;20051;-74
2022/04/10 06:12:55;;;;;;;3.35;2.30;;;;;;;10.38;42.29;99058.19;5086729;28;20037;-73
2022/04/10 06:15:27;;;;;;;4.18;2.90;;;;;;;14.04;35.75;99081.75;5086800;28;20051;-74
2022/04/10 06:17:59;;;;;;;3.88;2.50;;;;;;;14.13;32.97;98855.41;5086527;28;20052;-73
2022/04/10 06:20:32;;;;;;;4.38;2.20;;;;;;;16.64;31.61;99078.97;5086786;28;20044;-74
2022/04/10 06:23:04;;;;;;;6.90;3.35;;;;;;;17.93;30.68;99061.50;5069084;28;20041;-74
2022/04/10 06:25:40;;;;;;;3.83;2.50;;;;;;;18.29;28.55;99030.47;5086042;28;20200;-74
2022/04/10 06:28:12;;;;;;;4.07;2.58;;;;;;;19.09;29.14;99065.00;5086555;28;20048;-73
2022/04/10 06:30:45;;;;;;;3.80;2.53;;;;;;;18.67;29.36;98916.06;5069019;28;20036;-74
2022/04/10 06:33:18;;;;;;;10.05;2.92;;;;;;;20.04;28.52;99059.41;5086308;28;20066;-74
2022/04/10 06:35:50;;;;;;;3.45;2.15;;;;;;;20.36;28.08;99066.16;5086145;28;20044;-74
2022/04/10 06:38:24;;;;;;;4.20;2.28;;;;;;;20.59;27.76;99053.91;5086147;28;20036;-74
2022/04/10 06:40:58;;;;;;;3.28;2.10;;;;;;;20.43;28.45;99062.69;5086158;28;20201;-74
2022/04/10 06:43:30;;;;;;;3.80;2.27;;;;;;;19.04;29.82;99072.66;5086335;28;20048;-74
2022/04/10 06:46:04;;;;;;;4.60;2.42;;;;;;;19.09;31.00;99078.44;5068661;28;20040;-75
2022/04/10 06:48:36;;;;;;;4.68;2.55;;;;;;;19.09;31.61;99074.91;5068666;28;20201;-75
2022/04/10 06:51:11;;;;;;;5.00;2.50;;;;;;;18.81;29.94;99079.34;5086267;28;20060;-75
2022/04/10 06:53:43;;;;;;;4.20;2.38;;;;;;;17.83;32.45;99079.41;5086285;28;20040;-74
2022/04/10 06:56:17;;;;;;;3.25;2.42;;;;;;;15.94;33.96;99055.44;5068754;28;20048;-75
2022/04/10 06:58:46;;;;;;;6.32;3.10;;;;;;;14.83;36.12;99027.81;5085842;28;20102;-74
2022/04/10 07:01:16;;;;;;;3.47;2.42;;;;;;;14.31;36.87;99055.72;5085875;28;20036;-74
2022/04/10 07:03:46;;;;;;;4.63;3.05;;;;;;;13.31;38.88;99114.50;5085698;28;20040;-75
2022/04/10 07:06:16;;;;;;;7.90;3.45;;;;;;;12.36;40.65;99120.13;5067932;28;20212;-74
2022/04/10 07:08:47;;;;;;;5.47;3.85;;;;;;;11.67;41.80;99134.28;5068392;28;20059;-75
2022/04/10 07:11:18;;;;;;;4.78;2.83;;;;;;;11.30;42.45;99137.53;5051960;28;20040;-74
2022/04/10 07:13:46;;;;;;;5.00;2.13;;;;;;;11.07;43.05;99134.47;5085688;28;20301;-74
2022/04/10 07:16:17;;;;;;;4.88;2.25;;;;;;;10.39;42.50;99056.41;5068477;28;20044;-75
2022/04/10 07:18:48;;;;;;;4.35;2.47;;;;;;;10.86;42.71;99133.13;5085566;28;20039;-74
2022/04/10 07:23:41;;;;;;;3.78;2.35;;;;;;;10.91;44.67;99141.66;5085738;28;20040;-75
2022/04/10 07:24:09;;;;;;;4.38;2.65;;;;;;;10.66;44.23;99094.50;5085371;28;20060;-75
2022/04/10 07:26:43;;;;;;;4.72;2.30;;;;;;;10.95;43.84;99137.03;5068096;28;20044;-75
2022/04/10 07:29:15;;;;;;;3.57;2.40;;;;;;;10.56;43.93;99043.84;5068239;28;20090;-74
2022/04/10 07:31:47;;;;;;;3.65;2.38;;;;;;;11.08;41.87;99128.22;5085379;28;20378;-74
2022/04/10 07:34:19;;;;;;;4.63;2.25;;;;;;;10.96;41.25;99138.72;5085392;28;20243;-74
2022/04/10 07:36:52;;;;;;;4.75;2.00;;;;;;;11.03;42.79;99137.41;5084631;28;20047;-74
2022/04/10 07:39:24;;;;;;;5.60;2.63;;;;;;;11.01;41.00;99132.19;5085432;28;20101;-74
2022/04/10 07:41:58;;;;;;;3.15;1.90;;;;;;;11.11;40.41;99143.09;5085313;28;20090;-74
2022/04/10 07:44:30;;;;;;;2.92;1.85;;;;;;;11.26;41.90;99141.31;5085304;28;20048;-74
2022/04/10 07:49:54;;;;;;;2.92;1.80;;;;;;;11.54;39.41;99141.31;5085394;28;20284;-74
2022/04/10 07:52:26;;;;;;;2.58;1.63;;;;;;;11.50;40.08;99145.09;5085052;28;20041;-74
2022/04/10 07:54:58;;;;;;;3.67;2.25;;;;;;;11.63;40.10;99137.22;5085282;28;20093;-74
2022/04/10 07:57:32;;;;;;;3.83;1.85;;;;;;;11.35;38.41;99101.81;5085080;28;20044;-75
2022/04/10 08:00:04;;;;;;;4.18;1.98;;;;;;;11.74;39.38;99151.53;5085205;28;20036;-74
2022/04/10 08:02:38;;;;;;;6.80;2.55;;;;;;;11.79;38.12;99151.25;5067607;28;20048;-75
2022/04/10 08:05:11;;;;;;;3.67;1.70;;;;;;;11.74;38.93;99148.88;5085126;28;20079;-74
2022/04/10 08:07:44;;;;;;;3.08;1.67;;;;;;;11.77;38.41;99156.66;5084770;28;20459;-74
2022/04/10 08:10:16;;;;;;;3.10;1.67;;;;;;;11.73;37.68;99152.47;5067237;28;20086;-74
2022/04/10 08:12:50;;;;;;;3.58;2.17;;;;;;;10.86;37.64;99062.38;5085245;28;20041;-74
2022/04/10 08:15:22;;;;;;;1.98;1.38;;;;;;;11.47;38.20;99161.22;5085210;28;20284;-74
2022/04/10 08:17:56;;;;;;;3.63;2.30;;;;;;;11.52;37.87;99153.81;5067216;28;20091;-74
2022/04/10 08:20:28;;;;;;;2.60;1.60;;;;;;;11.59;37.29;99181.69;5084928;28;20048;-74
2022/04/10 08:23:00;;;;;;;3.10;1.88;;;;;;;11.79;37.86;99153.91;5084908;28;20048;-74
2022/04/10 08:25:33;;;;;;;3.72;1.90;;;;;;;11.96;36.82;99147.50;5084817;28;20041;-74
2022/04/10 08:28:07;;;;;;;5.40;2.33;;;;;;;12.10;35.77;99147.50;5084829;28;20086;-74
2022/04/10 08:30:40;;;;;;;3.05;1.75;;;;;;;12.17;37.01;99155.03;5084899;28;20041;-74
2022/04/10 08:33:12;;;;;;;3.83;1.55;;;;;;;11.63;37.01;99103.56;5084785;28;20094;-74
2022/04/10 08:35:45;;;;;;;4.47;1.90;;;;;;;10.68;36.80;98895.66;5085123;28;20044;-74
2022/04/10 08:38:17;;;;;;;5.97;2.00;;;;;;;12.26;35.65;99160.69;5084596;28;20040;-74
2022/04/10 08:40:50;;;;;;;3.45;1.77;;;;;;;12.33;36.48;99133.63;5085057;28;20292;-75
2022/04/10 08:43:24;;;;;;;3.40;2.00;;;;;;;12.37;36.17;99163.50;5067181;28;20256;-74
2022/04/10 08:45:57;;;;;;;6.55;2.22;;;;;;;11.25;36.65;98991.91;5067364;28;20040;-74
2022/04/10 08:48:31;;;;;;;4.40;2.22;;;;;;;12.21;36.01;99368.22;5085700;28;20036;-74
2022/04/10 08:51:05;;;;;;;4.50;1.92;;;;;;;12.12;36.77;99165.06;5070771;28;20044;-75
2022/04/10 08:53:37;;;;;;;;;;;;;;;11.85;34.41;99180.91;5088960;28;20041;-74
2022/04/10 08:56:10;;;;;;;4.13;2.00;;;;;;;11.49;37.30;99181.41;5088183;28;19927;-74
2022/04/10 08:58:45;;;;;;;4.47;2.33;;;;;;;11.44;37.75;99182.63;5088322;28;20041;-75
2022/04/10 09:01:19;;;;;;;3.47;2.00;;;;;;;11.68;37.70;99174.97;5070830;28;20108;-74
2022/04/10 09:03:47;;;;;;;3.28;2.17;;;;;;;11.98;37.32;99165.06;5087869;28;20063;-75
2022/04/10 09:06:19;;;;;;;4.10;2.00;;;;;;;11.99;36.64;99126.06;5070517;28;20067;-75
2022/04/10 09:08:48;;;;;;;6.25;2.60;;;;;;;12.14;36.33;99131.28;5087978;28;20190;-74
2022/04/10 09:11:18;;;;;;;4.25;2.50;;;;;;;12.35;35.86;99174.22;5087877;28;20059;-74
2022/04/10 09:13:51;;;;;;;3.15;1.95;;;;;;;12.09;35.86;99189.16;5087836;28;20216;-75
2022/04/10 09:16:24;;;;;;;3.85;2.22;;;;;;;11.64;36.94;99208.81;5088222;28;20036;-74
2022/04/10 09:18:55;;;;;;;3.92;2.53;;;;;;;11.42;37.77;99196.00;5088301;28;20278;-74
2022/04/10 09:21:25;;;;;;;4.57;2.28;;;;;;;11.12;38.47;99184.59;5054173;28;20083;-74
2022/04/10 09:23:59;;;;;;;7.43;2.90;;;;;;;10.84;38.67;99135.88;5088590;28;20322;-75
2022/04/10 09:26:45;;;;;;;3.60;2.30;;;;;;;11.35;38.13;99175.25;5087654;28;20048;-73
2022/04/10 09:29:20;;;;;;;5.15;2.20;;;;;;;11.39;38.37;99118.38;5069766;28;20053;-73
2022/04/10 09:31:54;;;;;;;4.45;2.03;;;;;;;11.42;37.89;99073.94;5087675;28;20048;-73
2022/04/10 09:34:26;;;;;;;4.63;2.75;;;;;;;12.20;37.42;99146.00;5070604;28;20048;-74
2022/04/10 09:37:01;;;;;;;5.15;2.60;;;;;;;12.17;37.66;99160.34;5054030;28;20048;-74
2022/04/10 09:39:35;;;;;;;4.43;2.25;;;;;;;11.98;37.50;99164.19;5087119;28;20106;-74
2022/04/10 09:42:08;;;;;;;7.13;3.53;;;;;;;10.55;37.20;99036.00;5087070;28;20040;-74
2022/04/10 09:44:42;;;;;;;4.80;2.90;;;;;;;11.38;37.05;99172.41;5087156;28;20371;-74
2022/04/10 09:47:14;;;;;;;10.73;7.57;;;;;;;11.11;37.58;99170.47;5070087;28;20055;-74
2022/04/10 09:49:48;;;;;;;6.00;3.83;;;;;;;10.95;38.20;99163.53;5087368;28;20045;-74
2022/04/10 09:52:20;;;;;;;6.20;2.92;;;;;;;10.17;37.62;99025.88;5087396;28;20086;-73
2022/04/10 09:54:54;;;;;;;3.88;2.53;;;;;;;11.22;36.25;99157.41;5087030;28;20311;-74
2022/04/10 09:57:26;;;;;;;3.53;2.37;;;;;;;11.59;36.65;99165.78;5087235;28;20052;-73
2022/04/10 10:00:04;;;;;;;4.82;2.20;;;;;;;12.02;35.14;99150.66;5086185;28;20083;-73
2022/04/10 10:02:37;;;;;;;3.47;2.42;;;;;;;12.36;34.43;99137.88;5087021;28;20037;-73
2022/04/10 10:05:10;;;;;;;3.58;2.30;;;;;;;12.66;34.45;99135.84;5069477;28;20048;-73
2022/04/10 10:07:44;;;;;;;7.15;3.20;;;;;;;12.62;32.89;99085.63;5069960;28;20204;-73
2022/04/10 10:10:20;;;;;;;3.92;2.05;;;;;;;12.80;32.78;99127.78;5069879;28;20041;-73
2022/04/10 10:12:53;;;;;;;3.95;2.38;;;;;;;12.26;33.77;99150.06;5086876;28;20086;-73
2022/04/10 10:15:28;;;;;;;3.38;1.90;;;;;;;11.94;33.80;99146.75;5086784;28;20308;-73
2022/04/10 10:18:02;;;;;;;9.45;7.13;;;;;;;11.71;36.33;99150.88;5086465;28;20064;-74
2022/04/10 10:20:36;;;;;;;12.80;10.05;;;;;;;11.29;37.67;99096.88;5068924;28;20045;-73
2022/04/10 10:23:10;;;;;;;5.30;3.77;;;;;;;6.40;38.67;98324.75;5086344;28;20040;-73
2022/04/10 10:25:48;;;;;;;4.32;3.33;;;;;;;10.61;38.90;99088.63;5086318;28;20044;-73
2022/04/10 10:28:56;;;;;;;4.93;3.17;;;;;;;10.69;39.23;99138.53;5068885;28;20070;-74
2022/04/10 10:31:40;;;;;;;4.00;2.38;;;;;;;10.82;39.56;99134.25;5086251;28;20040;-74
2022/04/10 10:34:14;;;;;;;6.18;2.83;;;;;;;10.99;38.51;99128.78;5086450;28;20086;-73
2022/04/10 10:36:46;;;;;;;4.60;2.72;;;;;;;11.16;38.16;99133.91;5053052;28;20037;-73
2022/04/10 10:39:19;;;;;;;4.00;2.35;;;;;;;11.04;37.24;99129.38;5086334;28;20051;-73
2022/04/10 10:41:52;;;;;;;3.35;2.40;;;;;;;10.86;37.41;99128.66;5086290;28;20247;-73
2022/04/10 10:44:47;;;;;;;3.45;2.42;;;;;;;10.42;34.83;99101.25;5086330;28;20045;-73
2022/04/10 10:47:23;;;;;;;4.75;2.90;;;;;;;10.06;37.21;99044.19;5068620;28;20045;-73
2022/04/10 10:49:55;;;;;;;5.70;2.97;;;;;;;10.55;37.03;99142.84;5068532;28;20296;-73
2022/04/10 10:52:28;;;;;;;5.53;2.92;;;;;;;9.30;37.63;99036.13;5068723;28;20304;-73
2022/04/10 10:55:03;;;;;;;3.67;2.92;;;;;;;10.40;37.96;99156.13;5085453;28;20060;-73
2022/04/10 10:57:41;;;;;;;3.92;2.53;;;;;;;10.01;37.04;99093.91;5085694;28;20044;-74
2022/04/10 11:00:16;;;;;;;5.60;3.03;;;;;;;9.06;37.62;98968.69;5085577;28;20041;-73
2022/04/10 11:02:52;;;;;;;3.67;2.22;;;;;;;9.97;38.84;99163.84;5085622;28;20043;-73
2022/04/10 11:05:30;;;;;;;7.20;3.08;;;;;;;9.62;39.35;99110.22;5068696;28;20066;-73
2022/04/10 11:08:05;;;;;;;4.93;3.22;;;;;;;10.23;38.71;99160.59;5085315;28;20065;-73
2022/04/10 11:10:40;;;;;;;6.03;3.15;;;;;;;10.44;38.11;99155.88;5068913;28;20204;-73
2022/04/10 11:13:15;;;;;;;3.97;2.90;;;;;;;10.56;38.09;99144.56;5084901;28;20041;-73
2022/04/10 11:15:49;;;;;;;4.30;2.72;;;;;;;10.79;37.80;99158.28;5085745;28;20048;-73
2022/04/10 11:18:35;;;;;;;11.13;7.28;;;;;;;10.85;37.54;99157.94;5068997;28;20212;-73
2022/04/10 11:21:15;;;;;;;18.77;15.73;;;;;;;10.98;37.28;99166.84;5085517;28;20049;-73
2022/04/10 11:23:49;;;;;;;9.10;7.40;;;;;;;11.05;37.00;99416.63;5085549;28;20045;-73
2022/04/10 11:26:27;;;;;;;7.17;5.00;;;;;;;10.67;37.22;99085.63;5069036;28;20094;-73
2022/04/10 11:29:05;;;;;;;13.30;8.10;;;;;;;10.59;36.07;99117.88;5085511;28;20409;-73
2022/04/10 11:31:40;;;;;;;6.65;4.10;;;;;;;10.73;36.82;99185.13;5068409;28;20093;-74
2022/04/10 11:34:15;;;;;;;;;;;;;;;10.37;36.80;99204.84;5085596;28;20047;-73
2022/04/10 11:36:55;;;;;;;3.65;2.30;;;;;;;10.27;37.76;99190.41;5067917;28;20166;-73
2022/04/10 11:39:34;;;;;;;5.18;2.55;;;;;;;10.32;40.55;99198.97;5085156;28;20044;-74
2022/04/10 11:42:08;;;;;;;4.93;3.03;;;;;;;10.24;41.22;99203.81;5085282;28;20044;-75
2022/04/10 11:44:41;;;;;;;3.70;2.33;;;;;;;10.14;41.49;99207.94;5085531;28;20083;-74
2022/04/10 11:47:15;;;;;;;4.03;2.58;;;;;;;9.91;41.94;99157.13;5067704;28;20063;-74
2022/04/10 11:49:53;;;;;;;3.75;2.50;;;;;;;10.31;41.31;99194.59;5085269;28;20044;-74
2022/04/10 11:52:25;;;;;;;3.90;2.10;;;;;;;10.35;40.71;99209.38;5085216;28;20058;-74
2022/04/10 11:54:58;;;;;;;2.80;1.80;;;;;;;10.39;40.65;99210.06;5068518;28;20036;-74
2022/04/10 11:57:31;;;;;;;3.85;2.05;;;;;;;10.46;40.43;99209.63;5085075;28;20042;-74
2022/04/10 12:00:06;;;;;;;3.53;2.28;;;;;;;10.46;40.43;99192.88;5084853;28;20086;-74
2022/04/10 12:02:39;;;;;;;8.18;2.22;;;;;;;10.07;40.42;99111.25;5068161;28;20086;-74
2022/04/10 12:05:13;;;;;;;2.83;2.03;;;;;;;10.20;40.76;99141.38;5068093;28;20077;-73
2022/04/10 12:07:45;;;;;;;4.05;2.58;;;;;;;10.54;41.06;99175.59;5084828;28;20133;-74